CheckWX is a tool to help pilots better visualize weather data.  It is not intended as a substitute for an official pre-flight weather briefing.

00:55:58 UTC

KGTF METAR
Great Falls International Airport
Great Falls, Montana, USA
Current

1 hour ago

KGTF 232353Z 19004KT 10SM CLR 10/M01 A2994 RMK AO2 SLP158 T01001006 10117 20056 50000 $
Observed
Mar-23 @ 23:53 UTC
Wind
  • 190° at 4 KTS
Visibility
10 SM
Flight Rules
VFR
Cloud Levels
  • Clear skies
Temperature
10°C / 50°F
Dewpoint
-1°C / 30°F
Humidity
47%
Altimeter
29.94" Hg
Pressure
1015.8 hPa
Previous

2 hours ago

KGTF 232253Z 22004KT 10SM CLR 11/M01 A2995 RMK AO2 SLP158 T01061006 $
Observed
Mar-23 @ 22:53 UTC
Wind
  • 220° at 4 KTS
Visibility
10 SM
Flight Rules
VFR
Cloud Levels
  • Clear skies
Temperature
11°C / 52°F
Dewpoint
-1°C / 30°F
Humidity
44%
Altimeter
29.95" Hg
Pressure
1015.8 hPa
Previous

3 hours ago

KGTF 232153Z 21006KT 10SM CLR 10/00 A2995 RMK AO2 SLP160 T01000000 $
Observed
Mar-23 @ 21:53 UTC
Wind
  • 210° at 6 KTS
Visibility
10 SM
Flight Rules
VFR
Cloud Levels
  • Clear skies
Temperature
10°C / 50°F
Dewpoint
C / 32°F
Humidity
50%
Altimeter
29.95" Hg
Pressure
1016 hPa